createdAt,value
2018-09-23T00:00:40.377Z,22.97
2018-09-23T00:03:09.139Z,22.87
2018-09-23T00:05:37.986Z,20.80
2018-09-23T00:08:07.175Z,19.00
2018-09-23T00:10:35.830Z,19.97
2018-09-23T00:13:04.808Z,18.97
2018-09-23T00:15:33.686Z,22.03
2018-09-23T00:18:02.440Z,23.50
2018-09-23T00:20:31.115Z,21.90
2018-09-23T00:23:00.813Z,21.00
2018-09-23T00:25:29.552Z,21.13
2018-09-23T00:27:58.367Z,19.87
2018-09-23T00:30:27.538Z,21.30
2018-09-23T00:32:56.456Z,24.63
2018-09-23T00:35:25.452Z,23.53
2018-09-23T00:37:54.557Z,21.73
2018-09-23T00:40:23.538Z,23.03
2018-09-23T00:42:52.636Z,21.33
2018-09-23T00:45:21.331Z,24.10
2018-09-23T00:47:50.258Z,22.67
2018-09-23T00:50:19.051Z,24.43
2018-09-23T00:52:47.698Z,23.73
2018-09-23T00:55:16.413Z,23.43
2018-09-23T00:57:45.575Z,24.50
2018-09-23T01:00:14.393Z,24.47
2018-09-23T01:02:43.204Z,25.50
2018-09-23T01:05:11.900Z,24.83
2018-09-23T01:07:40.803Z,25.33
2018-09-23T01:10:09.860Z,23.70
2018-09-23T01:12:38.815Z,21.67
2018-09-23T01:15:07.658Z,23.23
2018-09-23T01:17:36.574Z,23.40
2018-09-23T01:20:05.553Z,23.30
2018-09-23T01:22:34.339Z,23.77
2018-09-23T01:25:03.186Z,24.27
2018-09-23T01:27:31.966Z,24.97
2018-09-23T01:30:00.794Z,26.00
2018-09-23T01:32:30.097Z,25.93
2018-09-23T01:34:58.663Z,25.83
2018-09-23T01:37:27.810Z,25.20
2018-09-23T01:39:56.767Z,25.13
2018-09-23T01:42:25.970Z,24.60
2018-09-23T01:44:55.062Z,25.90
2018-09-23T01:47:24.263Z,24.70
2018-09-23T01:49:52.959Z,24.27
2018-09-23T01:52:21.766Z,24.20
2018-09-23T01:54:50.610Z,24.07
2018-09-23T01:57:19.642Z,24.60
2018-09-23T01:59:48.803Z,24.63
2018-09-23T02:02:17.465Z,25.00
2018-09-23T02:04:46.763Z,25.37
2018-09-23T02:07:15.631Z,24.17
2018-09-23T02:09:44.456Z,24.83
2018-09-23T02:12:13.218Z,22.40
2018-09-23T02:14:42.250Z,22.37
2018-09-23T02:17:11.055Z,23.57
2018-09-23T02:19:40.172Z,22.60
2018-09-23T02:22:08.813Z,23.33
2018-09-23T02:24:37.639Z,24.37
2018-09-23T02:27:06.782Z,23.93
2018-09-23T02:29:35.672Z,22.97
2018-09-23T02:32:04.621Z,22.53
2018-09-23T02:34:33.622Z,24.50
2018-09-23T02:37:02.567Z,24.13
2018-09-23T02:39:31.381Z,24.40
2018-09-23T02:42:00.395Z,23.80
2018-09-23T02:44:29.349Z,23.60
2018-09-23T02:46:58.194Z,24.00
2018-09-23T02:49:27.031Z,23.50
2018-09-23T02:51:55.959Z,25.43
2018-09-23T02:54:24.715Z,25.93
2018-09-23T02:56:53.858Z,24.77
2018-09-23T02:59:22.647Z,26.33
2018-09-23T03:01:51.652Z,24.53
2018-09-23T03:04:20.589Z,24.87
2018-09-23T03:06:49.182Z,23.77
2018-09-23T03:09:18.407Z,23.57
2018-09-23T03:11:47.157Z,23.63
2018-09-23T03:14:16.064Z,23.77
2018-09-23T03:16:44.977Z,25.30
2018-09-23T03:19:13.990Z,25.23
2018-09-23T03:21:42.619Z,25.50
2018-09-23T03:24:11.583Z,24.00
2018-09-23T03:26:40.223Z,22.90
2018-09-23T03:29:09.043Z,23.37
2018-09-23T03:31:38.023Z,23.67
2018-09-23T03:34:06.981Z,24.57
2018-09-23T03:36:35.902Z,25.07
2018-09-23T03:39:05.862Z,22.57
2018-09-23T03:41:35.078Z,25.83
2018-09-23T03:44:04.138Z,24.93
2018-09-23T03:46:33.015Z,22.93
2018-09-23T03:49:01.989Z,22.50
2018-09-23T03:51:30.813Z,23.77
2018-09-23T03:53:59.582Z,23.03
2018-09-23T03:56:28.699Z,23.60
2018-09-23T03:58:57.876Z,22.80
2018-09-23T04:01:26.852Z,22.60
2018-09-23T04:03:55.594Z,23.93
2018-09-23T04:06:24.482Z,22.80
2018-09-23T04:08:53.494Z,23.80
2018-09-23T04:11:22.337Z,25.40
2018-09-23T04:13:51.171Z,23.73
2018-09-23T04:16:20.066Z,24.40
2018-09-23T04:18:48.806Z,23.83
2018-09-23T04:21:17.572Z,24.83
2018-09-23T04:23:46.482Z,24.57
2018-09-23T04:26:15.502Z,23.43
2018-09-23T04:28:44.249Z,23.13
2018-09-23T04:31:13.059Z,23.13
2018-09-23T04:33:41.784Z,23.43
2018-09-23T04:36:10.767Z,24.30
2018-09-23T04:38:39.775Z,23.43
2018-09-23T04:41:08.767Z,24.70
2018-09-23T04:43:37.373Z,23.57
2018-09-23T04:46:06.486Z,23.90
2018-09-23T04:48:35.168Z,24.80
2018-09-23T04:51:03.820Z,23.20
2018-09-23T04:53:32.719Z,23.97
2018-09-23T04:56:01.920Z,23.57
2018-09-23T04:58:30.909Z,23.87
2018-09-23T05:00:59.838Z,22.97
2018-09-23T05:03:28.821Z,24.03
2018-09-23T05:05:57.919Z,23.13
2018-09-23T05:08:26.559Z,24.53
2018-09-23T05:10:55.309Z,24.57
2018-09-23T05:13:24.233Z,23.03
2018-09-23T05:15:53.176Z,24.10
2018-09-23T05:18:21.974Z,23.10
2018-09-23T05:20:50.963Z,22.77
2018-09-23T05:23:19.983Z,22.03
2018-09-23T05:25:48.931Z,20.83
2018-09-23T05:28:17.922Z,19.93
2018-09-23T05:30:46.888Z,19.43
2018-09-23T05:33:15.574Z,17.97
2018-09-23T05:35:44.765Z,18.47
2018-09-23T05:38:13.546Z,17.23
2018-09-23T05:40:42.799Z,18.27
2018-09-23T05:43:11.842Z,17.73
2018-09-23T05:45:40.607Z,17.77
2018-09-23T05:48:09.711Z,17.37
2018-09-23T05:50:38.823Z,18.37
2018-09-23T05:53:07.567Z,17.07
2018-09-23T05:55:36.964Z,17.30
2018-09-23T05:58:06.123Z,16.30
2018-09-23T06:00:40.268Z,16.80
2018-09-23T06:03:09.167Z,18.37
2018-09-23T06:05:38.044Z,18.63
2018-09-23T06:08:07.127Z,16.43
2018-09-23T06:10:36.087Z,17.47
2018-09-23T06:13:04.804Z,16.57
2018-09-23T06:15:33.659Z,16.20
2018-09-23T06:18:02.410Z,16.63
2018-09-23T06:20:31.327Z,16.73
2018-09-23T06:23:00.420Z,16.90
2018-09-23T06:25:29.228Z,14.10
2018-09-23T06:27:58.121Z,14.47
2018-09-23T06:30:26.756Z,14.03
2018-09-23T06:32:55.563Z,14.70
2018-09-23T06:35:24.395Z,14.07
2018-09-23T06:37:53.329Z,14.57
2018-09-23T06:40:22.017Z,12.77
2018-09-23T06:42:50.608Z,13.73
2018-09-23T06:45:19.455Z,13.73
2018-09-23T06:47:48.531Z,12.90
2018-09-23T06:50:17.419Z,12.97
2018-09-23T06:52:46.551Z,12.27
2018-09-23T06:55:15.676Z,10.30
2018-09-23T06:57:50.034Z,10.70
2018-09-23T07:00:18.938Z,12.63
2018-09-23T07:02:47.888Z,9.60
2018-09-23T07:05:16.784Z,12.00
2018-09-23T07:07:45.930Z,10.60
2018-09-23T07:10:14.731Z,9.63
2018-09-23T07:12:43.410Z,10.93
2018-09-23T07:15:12.094Z,9.50
2018-09-23T07:17:41.125Z,9.23
2018-09-23T07:20:09.940Z,9.27
2018-09-23T07:22:39.092Z,9.97
2018-09-23T07:25:08.057Z,9.73
2018-09-23T07:27:37.079Z,9.93
2018-09-23T07:30:06.369Z,9.13
2018-09-23T07:32:35.095Z,8.87
2018-09-23T07:35:04.039Z,9.47
2018-09-23T07:37:32.963Z,9.07
2018-09-23T07:40:01.724Z,9.33
2018-09-23T07:42:30.313Z,9.87
2018-09-23T07:44:59.018Z,11.20
2018-09-23T07:47:27.820Z,9.97
2018-09-23T07:49:56.731Z,10.07
2018-09-23T07:52:25.494Z,9.77
2018-09-23T07:54:54.491Z,9.97
2018-09-23T07:57:23.613Z,9.27
2018-09-23T07:59:52.812Z,10.17
2018-09-23T08:02:21.810Z,10.17
2018-09-23T08:04:50.798Z,10.80
2018-09-23T08:07:20.031Z,9.40
2018-09-23T08:09:48.876Z,11.00
2018-09-23T08:12:17.477Z,11.10
2018-09-23T08:14:46.691Z,10.63
2018-09-23T08:17:15.127Z,10.50
2018-09-23T08:19:44.259Z,11.53
2018-09-23T08:22:13.071Z,11.63
2018-09-23T08:24:41.970Z,10.30
2018-09-23T08:27:10.925Z,10.43
2018-09-23T08:29:39.853Z,11.20
2018-09-23T08:32:09.062Z,10.67
2018-09-23T08:34:37.904Z,10.63
2018-09-23T08:37:06.906Z,10.23
2018-09-23T08:39:35.995Z,9.93
2018-09-23T08:42:04.690Z,11.33
2018-09-23T08:44:33.679Z,10.27
2018-09-23T08:47:02.810Z,11.37
2018-09-23T08:49:31.921Z,10.57
2018-09-23T08:52:00.897Z,9.43
2018-09-23T08:54:29.903Z,10.43
2018-09-23T08:56:58.571Z,10.43
2018-09-23T08:59:27.380Z,9.90
2018-09-23T09:01:56.299Z,10.77
2018-09-23T09:04:25.369Z,11.12
2018-09-23T09:06:54.590Z,10.93
2018-09-23T09:09:23.428Z,9.65
2018-09-23T09:11:52.167Z,11.10
2018-09-23T09:14:21.276Z,9.98
2018-09-23T09:16:50.575Z,10.68
2018-09-23T09:19:19.428Z,12.05
2018-09-23T09:21:48.329Z,11.43
2018-09-23T09:24:17.090Z,11.00
2018-09-23T09:26:46.132Z,10.20
2018-09-23T09:29:15.161Z,10.10
2018-09-23T09:31:44.022Z,9.90
2018-09-23T09:34:13.128Z,10.35
2018-09-23T09:36:41.866Z,12.00
2018-09-23T09:39:11.525Z,10.78
2018-09-23T09:41:40.971Z,11.03
2018-09-23T09:44:10.183Z,10.45
2018-09-23T09:46:39.049Z,10.70
2018-09-23T09:49:07.969Z,10.98
2018-09-23T09:51:36.725Z,10.85
2018-09-23T09:54:05.751Z,10.72
2018-09-23T09:56:34.732Z,10.82
2018-09-23T09:59:03.648Z,11.33
2018-09-23T10:01:32.604Z,11.48
2018-09-23T10:04:01.701Z,12.37
2018-09-23T10:06:30.509Z,11.70
2018-09-23T10:08:59.279Z,12.00
2018-09-23T10:11:28.210Z,12.05
2018-09-23T10:13:57.002Z,11.00
2018-09-23T10:16:25.813Z,11.33
2018-09-23T10:18:54.746Z,11.95
2018-09-23T10:21:24.067Z,11.88
2018-09-23T10:23:52.871Z,11.15
2018-09-23T10:26:21.860Z,12.68
2018-09-23T10:28:50.507Z,12.40
2018-09-23T10:31:19.355Z,13.38
2018-09-23T10:33:48.077Z,11.53
2018-09-23T10:36:17.213Z,11.55
2018-09-23T10:38:45.977Z,11.83
2018-09-23T10:41:14.725Z,11.22
2018-09-23T10:43:43.599Z,11.35
2018-09-23T10:46:12.486Z,12.05
2018-09-23T10:48:41.222Z,11.33
2018-09-23T10:51:10.316Z,11.50
2018-09-23T10:53:39.305Z,12.95
2018-09-23T10:56:08.373Z,11.48
2018-09-23T10:58:37.285Z,11.68
2018-09-23T11:01:06.510Z,11.85
2018-09-23T11:03:35.509Z,11.93
2018-09-23T11:06:04.204Z,11.63
2018-09-23T11:08:32.987Z,12.00
2018-09-23T11:11:01.666Z,12.23
2018-09-23T11:13:30.607Z,11.70
2018-09-23T11:15:59.348Z,12.07
2018-09-23T11:18:28.275Z,11.50
2018-09-23T11:20:57.002Z,11.65
2018-09-23T11:23:26.004Z,11.20
2018-09-23T11:25:54.966Z,11.35
2018-09-23T11:28:23.851Z,10.03
2018-09-23T11:30:52.787Z,11.63
2018-09-23T11:33:21.689Z,11.90
2018-09-23T11:35:50.404Z,11.45
2018-09-23T11:38:19.038Z,10.40
2018-09-23T11:40:47.679Z,9.95
2018-09-23T11:43:16.546Z,10.38
2018-09-23T11:45:45.622Z,10.50
2018-09-23T11:48:14.454Z,11.18
2018-09-23T11:50:44.324Z,11.30
2018-09-23T11:53:13.204Z,11.05
2018-09-23T11:55:42.342Z,11.03
2018-09-23T11:58:11.689Z,10.65
2018-09-23T12:00:40.596Z,9.70
2018-09-23T12:03:09.619Z,10.95
2018-09-23T12:05:38.486Z,9.68
2018-09-23T12:08:07.608Z,10.03
2018-09-23T12:10:36.523Z,11.03
2018-09-23T12:13:05.292Z,10.00
2018-09-23T12:15:34.058Z,9.53
2018-09-23T12:18:02.970Z,10.70
2018-09-23T12:20:31.633Z,11.20
2018-09-23T12:23:00.695Z,10.55
2018-09-23T12:25:29.825Z,9.80
2018-09-23T12:27:58.472Z,10.18
2018-09-23T12:30:27.358Z,10.68
2018-09-23T12:32:56.231Z,10.38
2018-09-23T12:35:25.047Z,11.35
2018-09-23T12:37:53.634Z,10.53
2018-09-23T12:40:22.362Z,10.65
2018-09-23T12:42:51.272Z,10.95
2018-09-23T12:45:20.303Z,10.72
2018-09-23T12:47:49.461Z,11.20
2018-09-23T12:50:18.816Z,10.35
2018-09-23T12:52:47.927Z,9.48
2018-09-23T12:55:17.005Z,10.23
2018-09-23T12:57:46.019Z,11.28
2018-09-23T13:00:15.007Z,10.13
2018-09-23T13:02:43.739Z,9.95
2018-09-23T13:05:12.667Z,9.85
2018-09-23T13:07:41.399Z,11.15
2018-09-23T13:10:10.092Z,9.73
2018-09-23T13:12:38.932Z,9.85
2018-09-23T13:15:08.247Z,10.13
2018-09-23T13:17:37.339Z,9.10
2018-09-23T13:20:06.853Z,9.53
2018-09-23T13:22:35.501Z,10.50
2018-09-23T13:25:04.785Z,9.23
2018-09-23T13:27:33.551Z,10.20
2018-09-23T13:30:02.790Z,9.73
2018-09-23T13:32:31.775Z,9.90
2018-09-23T13:35:00.477Z,9.48
2018-09-23T13:37:29.152Z,10.32
2018-09-23T13:39:57.962Z,9.38
2018-09-23T13:42:26.917Z,9.70
2018-09-23T13:44:55.783Z,8.83
2018-09-23T13:47:24.717Z,9.60
2018-09-23T13:49:53.965Z,9.48
2018-09-23T13:52:23.104Z,9.08
2018-09-23T13:54:52.267Z,9.78
2018-09-23T13:57:21.193Z,9.08
2018-09-23T13:59:50.299Z,8.80
2018-09-23T14:02:19.054Z,9.50
2018-09-23T14:04:47.683Z,9.53
2018-09-23T14:07:16.291Z,9.28
2018-09-23T14:09:45.540Z,9.45
2018-09-23T14:12:14.519Z,10.08
2018-09-23T14:14:43.181Z,10.30
2018-09-23T14:17:12.230Z,10.18
2018-09-23T14:19:41.329Z,8.95
2018-09-23T14:22:10.379Z,11.33
2018-09-23T14:24:39.507Z,10.55
2018-09-23T14:27:08.383Z,11.38
2018-09-23T14:29:37.302Z,9.98
2018-09-23T14:32:06.088Z,9.83
2018-09-23T14:34:35.156Z,10.50
2018-09-23T14:37:03.924Z,10.55
2018-09-23T14:39:33.074Z,10.15
2018-09-23T14:42:01.812Z,9.88
2018-09-23T14:44:30.859Z,10.35
2018-09-23T14:46:59.843Z,10.40
2018-09-23T14:49:28.966Z,10.90
2018-09-23T14:51:57.619Z,10.15
2018-09-23T14:54:26.618Z,10.25
2018-09-23T14:56:55.290Z,10.63
2018-09-23T14:59:24.287Z,9.95
2018-09-23T15:01:53.483Z,11.40
2018-09-23T15:04:22.230Z,11.95
2018-09-23T15:06:50.970Z,12.65
2018-09-23T15:09:19.892Z,10.65
2018-09-23T15:11:49.166Z,11.90
2018-09-23T15:14:18.079Z,11.85
2018-09-23T15:16:47.076Z,10.45
2018-09-23T15:19:16.046Z,11.33
2018-09-23T15:21:45.281Z,10.60
2018-09-23T15:24:14.091Z,11.95
2018-09-23T15:26:43.073Z,10.00
2018-09-23T15:29:12.165Z,10.30
2018-09-23T15:31:40.930Z,10.68
2018-09-23T15:34:10.103Z,9.83
2018-09-23T15:36:39.020Z,10.45
2018-09-23T15:39:08.934Z,11.08
2018-09-23T15:41:38.250Z,11.55
2018-09-23T15:44:07.629Z,12.13
2018-09-23T15:46:36.469Z,11.00
2018-09-23T15:49:05.474Z,12.00
2018-09-23T15:51:34.342Z,11.63
2018-09-23T15:54:03.258Z,11.22
2018-09-23T15:56:31.958Z,10.78
2018-09-23T15:59:02.301Z,11.90
2018-09-23T16:01:31.107Z,11.83
2018-09-23T16:03:59.820Z,10.90
2018-09-23T16:06:28.786Z,26.45
2018-09-23T16:08:57.712Z,24.57
2018-09-23T16:11:27.083Z,32.00
2018-09-23T16:13:56.005Z,20.92
2018-09-23T16:16:24.995Z,19.32
2018-09-23T16:18:53.927Z,20.00
2018-09-23T16:21:23.053Z,20.17
2018-09-23T16:23:52.243Z,17.17
2018-09-23T16:26:21.265Z,19.20
2018-09-23T16:28:50.106Z,20.48
2018-09-23T16:31:18.895Z,20.90
2018-09-23T16:33:47.653Z,22.90
2018-09-23T16:36:16.424Z,20.32
2018-09-23T16:38:45.434Z,23.27
2018-09-23T16:41:14.104Z,19.45
2018-09-23T16:43:43.302Z,19.23
2018-09-23T16:46:12.391Z,18.42
2018-09-23T16:48:41.461Z,17.70
2018-09-23T16:51:10.299Z,15.05
2018-09-23T16:53:39.234Z,16.20
2018-09-23T16:56:08.299Z,15.32
2018-09-23T16:58:37.026Z,16.42
2018-09-23T17:01:05.701Z,15.58
2018-09-23T17:03:34.345Z,15.87
2018-09-23T17:06:03.354Z,15.03
2018-09-23T17:08:32.197Z,17.67
2018-09-23T17:11:01.133Z,21.70
2018-09-23T17:13:30.099Z,19.47
2018-09-23T17:15:58.993Z,19.37
2018-09-23T17:18:27.814Z,17.03
2018-09-23T17:20:57.119Z,20.10
2018-09-23T17:23:25.882Z,19.03
2018-09-23T17:25:54.913Z,19.80
2018-09-23T17:28:23.707Z,17.33
2018-09-23T17:30:52.360Z,17.43
2018-09-23T17:33:21.302Z,16.20
2018-09-23T17:35:50.213Z,15.43
2018-09-23T17:38:18.935Z,15.80
2018-09-23T17:40:47.913Z,16.50
2018-09-23T17:43:16.888Z,13.60
2018-09-23T17:45:45.820Z,15.30
2018-09-23T17:48:14.894Z,15.67
2018-09-23T17:50:43.762Z,17.20
2018-09-23T17:53:12.591Z,17.97
2018-09-23T17:55:41.381Z,19.53
2018-09-23T17:58:10.059Z,17.47
2018-09-23T18:00:42.942Z,16.17
2018-09-23T18:03:12.740Z,15.70
2018-09-23T18:05:41.687Z,18.17
2018-09-23T18:08:11.064Z,18.63
2018-09-23T18:10:39.837Z,16.33
2018-09-23T18:13:08.881Z,16.30
2018-09-23T18:15:37.868Z,16.13
2018-09-23T18:18:06.830Z,16.27
2018-09-23T18:20:35.825Z,15.37
2018-09-23T18:23:04.742Z,16.80
2018-09-23T18:25:33.667Z,14.63
2018-09-23T18:28:02.317Z,14.67
2018-09-23T18:30:31.144Z,14.97
2018-09-23T18:33:00.551Z,15.17
2018-09-23T18:35:29.582Z,15.23
2018-09-23T18:37:58.565Z,14.47
2018-09-23T18:40:27.552Z,15.83
2018-09-23T18:42:56.432Z,16.30
2018-09-23T18:45:25.490Z,15.73
2018-09-23T18:47:54.223Z,15.23
2018-09-23T18:50:23.043Z,15.10
2018-09-23T18:52:57.423Z,14.87
2018-09-23T18:55:31.209Z,14.30
2018-09-23T18:58:00.297Z,16.07
2018-09-23T19:00:29.069Z,14.93
2018-09-23T19:02:58.316Z,15.33
2018-09-23T19:05:27.030Z,14.07
2018-09-23T19:07:55.939Z,14.83
2018-09-23T19:10:24.907Z,14.60
2018-09-23T19:12:59.020Z,13.57
2018-09-23T19:15:27.743Z,14.27
2018-09-23T19:17:56.691Z,13.97
2018-09-23T19:20:26.062Z,13.47
2018-09-23T19:23:00.019Z,14.23
2018-09-23T19:25:29.097Z,16.23
2018-09-23T19:27:57.796Z,14.17
2018-09-23T19:30:26.518Z,13.97
2018-09-23T19:32:55.405Z,15.53
2018-09-23T19:35:24.483Z,14.80
2018-09-23T19:37:53.690Z,14.93
2018-09-23T19:40:22.558Z,15.07
2018-09-23T19:42:51.595Z,16.23
2018-09-23T19:45:20.699Z,16.47
2018-09-23T19:47:49.791Z,16.73
2018-09-23T19:50:18.462Z,16.27
2018-09-23T19:52:47.443Z,19.40
2018-09-23T19:55:16.226Z,15.03
2018-09-23T19:57:44.808Z,15.07
2018-09-23T20:00:13.672Z,15.97
2018-09-23T20:02:42.430Z,14.40
2018-09-23T20:05:11.474Z,15.00
2018-09-23T20:07:40.537Z,13.93
2018-09-23T20:10:09.514Z,14.57
2018-09-23T20:12:38.689Z,13.60
2018-09-23T20:15:12.767Z,14.27
2018-09-23T20:17:41.616Z,13.63
2018-09-23T20:20:10.757Z,14.30
2018-09-23T20:22:39.582Z,14.67
2018-09-23T20:25:08.319Z,13.83
2018-09-23T20:27:37.073Z,13.67
2018-09-23T20:30:06.348Z,13.93
2018-09-23T20:32:35.368Z,13.80
2018-09-23T20:35:05.281Z,12.73
2018-09-23T20:37:34.342Z,12.90
2018-09-23T20:40:03.460Z,14.17
2018-09-23T20:42:32.568Z,14.40
2018-09-23T20:45:02.079Z,13.07
2018-09-23T20:47:30.804Z,13.10
2018-09-23T20:49:59.928Z,13.00
2018-09-23T20:52:28.561Z,13.67
2018-09-23T20:54:57.300Z,13.40
2018-09-23T20:57:26.055Z,14.27
2018-09-23T20:59:54.973Z,13.83
2018-09-23T21:02:23.736Z,14.17
2018-09-23T21:04:52.683Z,14.40
2018-09-23T21:07:21.686Z,14.50
2018-09-23T21:09:50.448Z,14.53
2018-09-23T21:12:19.581Z,15.93
2018-09-23T21:14:48.331Z,14.77
2018-09-23T21:17:17.103Z,15.03
2018-09-23T21:19:46.015Z,14.97
2018-09-23T21:22:14.920Z,15.60
2018-09-23T21:24:43.569Z,14.33
2018-09-23T21:27:12.414Z,14.30
2018-09-23T21:29:41.165Z,14.57
2018-09-23T21:32:10.218Z,14.40
2018-09-23T21:34:39.362Z,14.63
2018-09-23T21:37:08.220Z,14.60
2018-09-23T21:39:37.341Z,15.03
2018-09-23T21:42:06.243Z,14.87
2018-09-23T21:44:35.103Z,15.73
2018-09-23T21:47:03.994Z,13.87
2018-09-23T21:49:32.907Z,14.47
2018-09-23T21:52:01.907Z,16.20
2018-09-23T21:54:30.571Z,14.43
2018-09-23T21:56:59.224Z,14.67
2018-09-23T21:59:28.139Z,14.90
2018-09-23T22:01:57.042Z,14.70
2018-09-23T22:04:26.150Z,13.60
2018-09-23T22:06:54.952Z,15.43
2018-09-23T22:09:24.002Z,14.63
2018-09-23T22:11:52.878Z,15.60
2018-09-23T22:14:21.831Z,15.50
2018-09-23T22:16:50.760Z,16.00
2018-09-23T22:19:19.716Z,16.80
2018-09-23T22:21:48.654Z,15.93
2018-09-23T22:24:17.440Z,16.50
2018-09-23T22:26:46.239Z,15.73
2018-09-23T22:29:15.183Z,15.47
2018-09-23T22:31:44.260Z,15.23
2018-09-23T22:34:13.148Z,16.20
2018-09-23T22:36:42.229Z,16.27
2018-09-23T22:39:11.030Z,15.67
2018-09-23T22:41:39.944Z,15.53
2018-09-23T22:44:08.575Z,15.80
2018-09-23T22:46:37.452Z,15.87
2018-09-23T22:49:06.570Z,17.73
2018-09-23T22:51:35.444Z,16.17
2018-09-23T22:54:04.154Z,14.70
2018-09-23T22:56:32.863Z,14.57
2018-09-23T22:59:01.606Z,14.97
2018-09-23T23:01:30.664Z,15.57
2018-09-23T23:03:59.618Z,15.20
2018-09-23T23:06:28.663Z,15.20
2018-09-23T23:08:57.639Z,16.03
2018-09-23T23:11:26.600Z,16.20
2018-09-23T23:13:55.449Z,14.60
2018-09-23T23:16:24.379Z,15.57
2018-09-23T23:18:53.077Z,15.53
2018-09-23T23:21:21.841Z,15.03
2018-09-23T23:23:50.476Z,14.70
2018-09-23T23:26:19.051Z,15.83
2018-09-23T23:28:47.910Z,15.93
2018-09-23T23:31:16.998Z,15.80
2018-09-23T23:33:45.983Z,13.93
2018-09-23T23:36:14.844Z,12.77
2018-09-23T23:38:43.575Z,12.90
2018-09-23T23:41:12.358Z,14.50
2018-09-23T23:43:41.212Z,13.83
2018-09-23T23:46:10.374Z,13.73
2018-09-23T23:48:39.541Z,13.67
2018-09-23T23:51:08.307Z,14.63
2018-09-23T23:53:37.031Z,13.47
2018-09-23T23:56:05.904Z,13.63
2018-09-23T23:58:35.106Z,15.00
